sensor_id;sensor_type;location;lat;lon;timestamp;pressure;altitude;pressure_sealevel;temperature;humidity
54978;BME280;40873;47.522;19.106;2023-04-03T00:00:42;100249.94;;;6.45;79.04
54978;BME280;40873;47.522;19.106;2023-04-03T00:03:17;100241.69;;;6.54;79.12
54978;BME280;40873;47.522;19.106;2023-04-03T00:05:45;100247.28;;;6.66;79.20
54978;BME280;40873;47.522;19.106;2023-04-03T00:08:13;100249.06;;;6.65;78.17
54978;BME280;40873;47.522;19.106;2023-04-03T00:10:40;100254.44;;;6.62;77.86
54978;BME280;40873;47.522;19.106;2023-04-03T00:13:08;100250.19;;;6.59;77.46
54978;BME280;40873;47.522;19.106;2023-04-03T00:15:36;100245.44;;;6.49;78.11
54978;BME280;40873;47.522;19.106;2023-04-03T00:18:04;100248.97;;;6.48;77.59
54978;BME280;40873;47.522;19.106;2023-04-03T00:20:31;100250.69;;;6.49;78.43
54978;BME280;40873;47.522;19.106;2023-04-03T00:22:59;100246.78;;;6.57;77.43
54978;BME280;40873;47.522;19.106;2023-04-03T00:25:26;100248.19;;;6.46;78.62
54978;BME280;40873;47.522;19.106;2023-04-03T00:27:53;100252.34;;;6.31;78.40
54978;BME280;40873;47.522;19.106;2023-04-03T00:30:22;100254.19;;;6.29;78.56
54978;BME280;40873;47.522;19.106;2023-04-03T00:32:51;100252.81;;;6.20;78.58
54978;BME280;40873;47.522;19.106;2023-04-03T00:35:20;100256.38;;;6.19;78.88
54978;BME280;40873;47.522;19.106;2023-04-03T00:37:51;100257.84;;;6.25;80.26
54978;BME280;40873;47.522;19.106;2023-04-03T00:40:20;100257.38;;;6.36;78.96
54978;BME280;40873;47.522;19.106;2023-04-03T00:42:51;100257.50;;;6.32;78.75
54978;BME280;40873;47.522;19.106;2023-04-03T00:45:22;100261.13;;;6.30;77.45
54978;BME280;40873;47.522;19.106;2023-04-03T00:47:51;100253.19;;;6.31;77.88
54978;BME280;40873;47.522;19.106;2023-04-03T00:50:18;100256.47;;;6.37;77.40
54978;BME280;40873;47.522;19.106;2023-04-03T00:52:46;100272.44;;;6.30;77.71
54978;BME280;40873;47.522;19.106;2023-04-03T00:55:16;100269.31;;;6.22;77.83
54978;BME280;40873;47.522;19.106;2023-04-03T00:57:44;100267.34;;;6.27;77.61
54978;BME280;40873;47.522;19.106;2023-04-03T01:00:14;100275.06;;;6.30;77.57
54978;BME280;40873;47.522;19.106;2023-04-03T01:02:44;100270.91;;;6.26;77.53
54978;BME280;40873;47.522;19.106;2023-04-03T01:05:11;100274.50;;;6.24;77.47
54978;BME280;40873;47.522;19.106;2023-04-03T01:07:39;100278.22;;;6.18;77.06
54978;BME280;40873;47.522;19.106;2023-04-03T01:10:09;100275.56;;;6.20;76.98
54978;BME280;40873;47.522;19.106;2023-04-03T01:12:39;100269.59;;;5.96;77.26
54978;BME280;40873;47.522;19.106;2023-04-03T01:15:19;100275.66;;;5.96;78.22
54978;BME280;40873;47.522;19.106;2023-04-03T01:17:52;100261.03;;;6.13;77.84
54978;BME280;40873;47.522;19.106;2023-04-03T01:20:42;100266.53;;;6.07;77.50
54978;BME280;40873;47.522;19.106;2023-04-03T01:25:57;100263.69;;;5.91;77.76
54978;BME280;40873;47.522;19.106;2023-04-03T01:30:59;100271.91;;;5.82;78.15
54978;BME280;40873;47.522;19.106;2023-04-03T01:33:29;100260.34;;;5.87;79.10
54978;BME280;40873;47.522;19.106;2023-04-03T01:35:57;100255.88;;;5.89;77.85
54978;BME280;40873;47.522;19.106;2023-04-03T01:38:24;100271.00;;;5.83;77.65
54978;BME280;40873;47.522;19.106;2023-04-03T01:40:50;100268.44;;;5.81;77.18
54978;BME280;40873;47.522;19.106;2023-04-03T01:43:18;100275.69;;;5.74;77.68
54978;BME280;40873;47.522;19.106;2023-04-03T01:45:44;100275.75;;;5.73;77.99
54978;BME280;40873;47.522;19.106;2023-04-03T01:48:13;100273.09;;;5.74;78.36
54978;BME280;40873;47.522;19.106;2023-04-03T01:50:40;100273.84;;;5.76;77.95
54978;BME280;40873;47.522;19.106;2023-04-03T01:53:07;100278.84;;;5.83;77.65
54978;BME280;40873;47.522;19.106;2023-04-03T01:55:34;100286.06;;;5.77;77.18
54978;BME280;40873;47.522;19.106;2023-04-03T01:58:01;100283.38;;;5.79;76.71
54978;BME280;40873;47.522;19.106;2023-04-03T02:00:28;100282.31;;;5.83;76.95
54978;BME280;40873;47.522;19.106;2023-04-03T02:02:55;100288.97;;;5.70;76.26
54978;BME280;40873;47.522;19.106;2023-04-03T02:05:23;100288.44;;;5.62;76.45
54978;BME280;40873;47.522;19.106;2023-04-03T02:07:50;100281.69;;;5.56;78.41
54978;BME280;40873;47.522;19.106;2023-04-03T02:10:17;100293.63;;;5.63;75.82
54978;BME280;40873;47.522;19.106;2023-04-03T02:12:44;100291.38;;;5.54;76.65
54978;BME280;40873;47.522;19.106;2023-04-03T02:15:11;100298.69;;;5.46;77.09
54978;BME280;40873;47.522;19.106;2023-04-03T02:17:38;100292.03;;;5.59;77.42
54978;BME280;40873;47.522;19.106;2023-04-03T02:20:06;100291.91;;;5.62;77.17
54978;BME280;40873;47.522;19.106;2023-04-03T02:22:33;100286.88;;;5.58;77.07
54978;BME280;40873;47.522;19.106;2023-04-03T02:25:00;100285.09;;;5.58;76.44
54978;BME280;40873;47.522;19.106;2023-04-03T02:27:27;100291.56;;;5.49;77.07
54978;BME280;40873;47.522;19.106;2023-04-03T02:29:54;100289.97;;;5.45;77.75
54978;BME280;40873;47.522;19.106;2023-04-03T02:32:21;100298.44;;;5.52;78.11
54978;BME280;40873;47.522;19.106;2023-04-03T02:34:48;100292.97;;;5.36;78.09
54978;BME280;40873;47.522;19.106;2023-04-03T02:37:15;100296.69;;;5.31;78.14
54978;BME280;40873;47.522;19.106;2023-04-03T02:39:42;100290.84;;;5.24;78.46
54978;BME280;40873;47.522;19.106;2023-04-03T02:42:09;100292.84;;;5.17;78.81
54978;BME280;40873;47.522;19.106;2023-04-03T02:44:36;100293.84;;;5.13;78.89
54978;BME280;40873;47.522;19.106;2023-04-03T02:47:04;100293.00;;;5.13;79.08
54978;BME280;40873;47.522;19.106;2023-04-03T02:49:31;100292.28;;;5.09;79.16
54978;BME280;40873;47.522;19.106;2023-04-03T02:51:58;100296.75;;;5.06;78.85
54978;BME280;40873;47.522;19.106;2023-04-03T02:54:25;100299.22;;;5.10;79.05
54978;BME280;40873;47.522;19.106;2023-04-03T02:56:55;100295.38;;;5.19;80.20
54978;BME280;40873;47.522;19.106;2023-04-03T02:59:22;100295.56;;;5.14;78.91
54978;BME280;40873;47.522;19.106;2023-04-03T03:01:49;100286.84;;;5.14;79.02
54978;BME280;40873;47.522;19.106;2023-04-03T03:04:16;100287.16;;;5.06;79.40
54978;BME280;40873;47.522;19.106;2023-04-03T03:06:43;100289.91;;;5.03;79.46
54978;BME280;40873;47.522;19.106;2023-04-03T03:09:10;100291.06;;;4.96;80.58
54978;BME280;40873;47.522;19.106;2023-04-03T03:11:37;100293.19;;;5.08;80.66
54978;BME280;40873;47.522;19.106;2023-04-03T03:14:04;100299.91;;;5.15;79.00
54978;BME280;40873;47.522;19.106;2023-04-03T03:16:32;100305.44;;;5.08;78.82
54978;BME280;40873;47.522;19.106;2023-04-03T03:18:58;100308.38;;;4.99;78.97
54978;BME280;40873;47.522;19.106;2023-04-03T03:21:26;100307.44;;;5.01;80.00
54978;BME280;40873;47.522;19.106;2023-04-03T03:23:53;100302.28;;;4.98;80.22
54978;BME280;40873;47.522;19.106;2023-04-03T03:26:20;100290.13;;;4.97;80.23
54978;BME280;40873;47.522;19.106;2023-04-03T03:28:47;100307.81;;;4.90;80.08
54978;BME280;40873;47.522;19.106;2023-04-03T03:31:14;100303.66;;;4.85;80.68
54978;BME280;40873;47.522;19.106;2023-04-03T03:33:41;100303.66;;;4.85;80.64
54978;BME280;40873;47.522;19.106;2023-04-03T03:36:09;100303.84;;;4.80;81.59
54978;BME280;40873;47.522;19.106;2023-04-03T03:38:36;100306.34;;;4.83;81.95
54978;BME280;40873;47.522;19.106;2023-04-03T03:41:03;100305.66;;;4.78;81.38
54978;BME280;40873;47.522;19.106;2023-04-03T03:43:30;100304.72;;;4.81;81.54
54978;BME280;40873;47.522;19.106;2023-04-03T03:45:57;100304.06;;;4.74;81.84
54978;BME280;40873;47.522;19.106;2023-04-03T03:48:24;100305.00;;;4.73;81.54
54978;BME280;40873;47.522;19.106;2023-04-03T03:50:51;100308.63;;;4.69;81.58
54978;BME280;40873;47.522;19.106;2023-04-03T03:53:18;100308.34;;;4.53;82.16
54978;BME280;40873;47.522;19.106;2023-04-03T03:55:46;100307.22;;;4.59;82.97
54978;BME280;40873;47.522;19.106;2023-04-03T03:58:12;100309.19;;;4.54;82.65
54978;BME280;40873;47.522;19.106;2023-04-03T04:00:39;100312.28;;;4.40;83.14
54978;BME280;40873;47.522;19.106;2023-04-03T04:03:06;100312.28;;;4.40;83.92
54978;BME280;40873;47.522;19.106;2023-04-03T04:05:34;100302.31;;;4.26;84.78
54978;BME280;40873;47.522;19.106;2023-04-03T04:08:01;100299.44;;;4.34;84.55
54978;BME280;40873;47.522;19.106;2023-04-03T04:10:28;100307.13;;;4.38;84.79
54978;BME280;40873;47.522;19.106;2023-04-03T04:12:55;100299.38;;;4.35;84.90
54978;BME280;40873;47.522;19.106;2023-04-03T04:15:24;100308.13;;;4.34;85.31
54978;BME280;40873;47.522;19.106;2023-04-03T04:17:52;100311.91;;;4.26;85.28
54978;BME280;40873;47.522;19.106;2023-04-03T04:20:20;100310.84;;;4.31;85.37
54978;BME280;40873;47.522;19.106;2023-04-03T04:22:47;100312.72;;;4.28;85.01
54978;BME280;40873;47.522;19.106;2023-04-03T04:25:14;100317.28;;;4.21;85.73
54978;BME280;40873;47.522;19.106;2023-04-03T04:27:41;100318.94;;;4.24;86.61
54978;BME280;40873;47.522;19.106;2023-04-03T04:30:09;100328.00;;;4.13;86.13
54978;BME280;40873;47.522;19.106;2023-04-03T04:32:37;100326.56;;;4.05;86.36
54978;BME280;40873;47.522;19.106;2023-04-03T04:35:04;100321.59;;;3.97;86.97
54978;BME280;40873;47.522;19.106;2023-04-03T04:37:32;100330.63;;;3.87;87.68
54978;BME280;40873;47.522;19.106;2023-04-03T04:39:59;100322.91;;;3.84;87.85
54978;BME280;40873;47.522;19.106;2023-04-03T04:42:26;100323.00;;;3.81;88.08
54978;BME280;40873;47.522;19.106;2023-04-03T04:44:53;100330.19;;;3.74;89.48
54978;BME280;40873;47.522;19.106;2023-04-03T04:47:20;100323.59;;;3.89;89.10
54978;BME280;40873;47.522;19.106;2023-04-03T04:49:47;100329.47;;;3.96;87.94
54978;BME280;40873;47.522;19.106;2023-04-03T04:52:14;100335.41;;;4.01;87.58
54978;BME280;40873;47.522;19.106;2023-04-03T04:54:41;100336.88;;;4.08;87.19
54978;BME280;40873;47.522;19.106;2023-04-03T04:57:08;100342.03;;;4.11;86.64
54978;BME280;40873;47.522;19.106;2023-04-03T04:59:35;100346.44;;;4.09;86.59
54978;BME280;40873;47.522;19.106;2023-04-03T05:02:02;100347.41;;;4.06;87.15
54978;BME280;40873;47.522;19.106;2023-04-03T05:04:29;100344.31;;;4.20;86.58
54978;BME280;40873;47.522;19.106;2023-04-03T05:06:56;100339.09;;;4.20;85.88
54978;BME280;40873;47.522;19.106;2023-04-03T05:09:23;100344.63;;;4.11;86.58
54978;BME280;40873;47.522;19.106;2023-04-03T05:11:50;100344.09;;;4.26;87.08
54978;BME280;40873;47.522;19.106;2023-04-03T05:14:20;100352.88;;;4.24;86.21
54978;BME280;40873;47.522;19.106;2023-04-03T05:16:47;100355.50;;;4.24;86.52
54978;BME280;40873;47.522;19.106;2023-04-03T05:19:17;100357.91;;;4.30;86.28
54978;BME280;40873;47.522;19.106;2023-04-03T05:21:44;100362.97;;;4.34;85.89
54978;BME280;40873;47.522;19.106;2023-04-03T05:24:11;100365.00;;;4.26;85.67
54978;BME280;40873;47.522;19.106;2023-04-03T05:26:38;100369.44;;;4.24;86.05
54978;BME280;40873;47.522;19.106;2023-04-03T05:29:05;100361.53;;;4.26;86.19
54978;BME280;40873;47.522;19.106;2023-04-03T05:31:32;100359.56;;;4.32;87.19
54978;BME280;40873;47.522;19.106;2023-04-03T05:33:59;100344.34;;;4.44;85.84
54978;BME280;40873;47.522;19.106;2023-04-03T05:36:26;100356.31;;;4.51;86.16
54978;BME280;40873;47.522;19.106;2023-04-03T05:38:53;100352.09;;;4.47;84.72
54978;BME280;40873;47.522;19.106;2023-04-03T05:41:23;100351.13;;;4.49;85.09
54978;BME280;40873;47.522;19.106;2023-04-03T05:43:50;100357.69;;;4.36;85.37
54978;BME280;40873;47.522;19.106;2023-04-03T05:46:18;100363.88;;;4.33;85.48
54978;BME280;40873;47.522;19.106;2023-04-03T05:48:47;100362.00;;;4.37;86.23
54978;BME280;40873;47.522;19.106;2023-04-03T05:51:25;100356.78;;;4.37;86.37
54978;BME280;40873;47.522;19.106;2023-04-03T05:54:03;100353.25;;;4.38;86.71
54978;BME280;40873;47.522;19.106;2023-04-03T05:56:32;100361.72;;;4.45;85.87
54978;BME280;40873;47.522;19.106;2023-04-03T05:58:59;100361.53;;;4.51;85.53
54978;BME280;40873;47.522;19.106;2023-04-03T06:01:26;100369.06;;;4.60;85.12
54978;BME280;40873;47.522;19.106;2023-04-03T06:03:53;100367.28;;;4.60;84.21
54978;BME280;40873;47.522;19.106;2023-04-03T06:06:21;100362.66;;;4.68;84.24
54978;BME280;40873;47.522;19.106;2023-04-03T06:08:49;100371.00;;;4.78;83.66
54978;BME280;40873;47.522;19.106;2023-04-03T06:11:15;100362.22;;;4.81;83.22
54978;BME280;40873;47.522;19.106;2023-04-03T06:13:43;100372.81;;;4.76;83.52
54978;BME280;40873;47.522;19.106;2023-04-03T06:16:12;100366.47;;;4.83;84.25
54978;BME280;40873;47.522;19.106;2023-04-03T06:18:42;100375.91;;;5.11;83.78
54978;BME280;40873;47.522;19.106;2023-04-03T06:21:09;100366.44;;;5.30;81.44
54978;BME280;40873;47.522;19.106;2023-04-03T06:23:36;100375.00;;;5.57;80.11
54978;BME280;40873;47.522;19.106;2023-04-03T06:26:03;100375.41;;;5.68;80.63
54978;BME280;40873;47.522;19.106;2023-04-03T06:28:30;100376.56;;;5.83;78.06
54978;BME280;40873;47.522;19.106;2023-04-03T06:30:57;100376.03;;;5.97;77.46
54978;BME280;40873;47.522;19.106;2023-04-03T06:33:24;100381.69;;;6.08;77.07
54978;BME280;40873;47.522;19.106;2023-04-03T06:35:56;100385.97;;;6.31;76.39
54978;BME280;40873;47.522;19.106;2023-04-03T06:38:24;100380.22;;;6.64;75.03
54978;BME280;40873;47.522;19.106;2023-04-03T06:40:51;100379.63;;;6.57;73.21
54978;BME280;40873;47.522;19.106;2023-04-03T06:43:19;100395.16;;;6.62;74.60
54978;BME280;40873;47.522;19.106;2023-04-03T06:45:46;100389.38;;;6.53;71.79
54978;BME280;40873;47.522;19.106;2023-04-03T06:48:13;100386.63;;;6.56;72.64
54978;BME280;40873;47.522;19.106;2023-04-03T06:50:40;100391.03;;;6.56;70.84
54978;BME280;40873;47.522;19.106;2023-04-03T06:53:08;100393.41;;;6.81;71.62
54978;BME280;40873;47.522;19.106;2023-04-03T06:55:35;100387.78;;;7.09;71.63
54978;BME280;40873;47.522;19.106;2023-04-03T06:58:03;100389.94;;;7.38;70.10
54978;BME280;40873;47.522;19.106;2023-04-03T07:00:31;100394.59;;;7.51;69.51
54978;BME280;40873;47.522;19.106;2023-04-03T07:02:58;100401.00;;;7.26;64.82
54978;BME280;40873;47.522;19.106;2023-04-03T07:05:25;100407.09;;;7.27;65.69
54978;BME280;40873;47.522;19.106;2023-04-03T07:07:53;100408.44;;;7.35;65.08
54978;BME280;40873;47.522;19.106;2023-04-03T07:10:20;100414.63;;;7.34;64.69
54978;BME280;40873;47.522;19.106;2023-04-03T07:12:47;100415.38;;;7.36;64.12
54978;BME280;40873;47.522;19.106;2023-04-03T07:15:14;100421.66;;;7.34;64.56
54978;BME280;40873;47.522;19.106;2023-04-03T07:17:41;100422.97;;;7.42;65.07
54978;BME280;40873;47.522;19.106;2023-04-03T07:20:08;100419.97;;;7.52;65.29
54978;BME280;40873;47.522;19.106;2023-04-03T07:22:39;100419.66;;;7.58;64.79
54978;BME280;40873;47.522;19.106;2023-04-03T07:25:06;100411.63;;;7.80;66.12
54978;BME280;40873;47.522;19.106;2023-04-03T07:27:34;100420.97;;;7.85;65.23
54978;BME280;40873;47.522;19.106;2023-04-03T07:30:03;100421.03;;;8.03;63.21
54978;BME280;40873;47.522;19.106;2023-04-03T07:32:30;100422.59;;;8.07;63.55
54978;BME280;40873;47.522;19.106;2023-04-03T07:34:57;100418.25;;;8.23;62.68
54978;BME280;40873;47.522;19.106;2023-04-03T07:37:24;100425.00;;;7.92;62.77
54978;BME280;40873;47.522;19.106;2023-04-03T07:39:51;100419.50;;;7.80;61.53
54978;BME280;40873;47.522;19.106;2023-04-03T07:42:19;100422.44;;;7.91;62.84
54978;BME280;40873;47.522;19.106;2023-04-03T07:44:46;100428.44;;;8.12;63.25
54978;BME280;40873;47.522;19.106;2023-04-03T07:47:13;100428.34;;;8.13;61.62
54978;BME280;40873;47.522;19.106;2023-04-03T07:49:42;100429.25;;;8.14;60.30
54978;BME280;40873;47.522;19.106;2023-04-03T07:52:10;100432.94;;;8.27;61.81
54978;BME280;40873;47.522;19.106;2023-04-03T07:54:37;100429.31;;;8.30;61.35
54978;BME280;40873;47.522;19.106;2023-04-03T07:57:04;100437.28;;;8.28;60.14
54978;BME280;40873;47.522;19.106;2023-04-03T07:59:31;100428.22;;;8.35;60.08
54978;BME280;40873;47.522;19.106;2023-04-03T08:01:58;100434.50;;;8.31;61.00
54978;BME280;40873;47.522;19.106;2023-04-03T08:04:25;100433.41;;;8.18;60.46
54978;BME280;40873;47.522;19.106;2023-04-03T08:06:53;100438.56;;;8.38;60.26
54978;BME280;40873;47.522;19.106;2023-04-03T08:09:19;100442.97;;;8.38;60.26
54978;BME280;40873;47.522;19.106;2023-04-03T08:11:47;100432.16;;;8.44;59.63
54978;BME280;40873;47.522;19.106;2023-04-03T08:14:14;100439.88;;;8.64;59.59
54978;BME280;40873;47.522;19.106;2023-04-03T08:16:47;100448.16;;;8.74;58.50
54978;BME280;40873;47.522;19.106;2023-04-03T08:19:15;100434.84;;;8.77;59.64
54978;BME280;40873;47.522;19.106;2023-04-03T08:21:55;100442.94;;;8.90;59.60
54978;BME280;40873;47.522;19.106;2023-04-03T08:24:24;100439.44;;;9.06;57.96
54978;BME280;40873;47.522;19.106;2023-04-03T08:26:52;100436.22;;;9.17;57.09
54978;BME280;40873;47.522;19.106;2023-04-03T08:29:18;100441.78;;;9.28;58.69
54978;BME280;40873;47.522;19.106;2023-04-03T08:31:46;100439.22;;;9.11;56.61
54978;BME280;40873;47.522;19.106;2023-04-03T08:34:13;100437.25;;;9.15;57.07
54978;BME280;40873;47.522;19.106;2023-04-03T08:36:42;100439.75;;;9.33;56.21
54978;BME280;40873;47.522;19.106;2023-04-03T08:39:09;100440.53;;;9.51;55.86
54978;BME280;40873;47.522;19.106;2023-04-03T08:41:44;100441.75;;;9.61;55.46
54978;BME280;40873;47.522;19.106;2023-04-03T08:47:45;100439.03;;;9.79;54.43
54978;BME280;40873;47.522;19.106;2023-04-03T08:50:17;100435.88;;;9.72;53.12
54978;BME280;40873;47.522;19.106;2023-04-03T08:52:51;100439.09;;;9.93;55.33
54978;BME280;40873;47.522;19.106;2023-04-03T08:57:59;100437.41;;;11.41;51.94
54978;BME280;40873;47.522;19.106;2023-04-03T09:00:32;100442.66;;;11.84;53.77
54978;BME280;40873;47.522;19.106;2023-04-03T09:03:01;100440.25;;;11.93;48.66
54978;BME280;40873;47.522;19.106;2023-04-03T09:10:34;100436.94;;;12.04;47.22
54978;BME280;40873;47.522;19.106;2023-04-03T09:13:13;100442.63;;;12.38;47.18
54978;BME280;40873;47.522;19.106;2023-04-03T09:15:46;100445.09;;;12.14;46.76
54978;BME280;40873;47.522;19.106;2023-04-03T09:18:20;100433.63;;;11.45;47.40
54978;BME280;40873;47.522;19.106;2023-04-03T09:23:53;100440.81;;;11.29;51.06
54978;BME280;40873;47.522;19.106;2023-04-03T09:26:43;100447.56;;;10.90;50.42
54978;BME280;40873;47.522;19.106;2023-04-03T09:29:17;100443.31;;;10.87;52.42
54978;BME280;40873;47.522;19.106;2023-04-03T09:31:47;100440.59;;;11.03;51.93
54978;BME280;40873;47.522;19.106;2023-04-03T09:34:23;100446.47;;;11.22;49.76
54978;BME280;40873;47.522;19.106;2023-04-03T09:36:53;100442.47;;;10.87;48.79
54978;BME280;40873;47.522;19.106;2023-04-03T09:39:23;100442.50;;;11.01;48.20
54978;BME280;40873;47.522;19.106;2023-04-03T09:42:18;100434.25;;;10.77;49.59
54978;BME280;40873;47.522;19.106;2023-04-03T09:44:55;100445.81;;;10.60;49.39
54978;BME280;40873;47.522;19.106;2023-04-03T09:47:28;100434.28;;;11.34;49.68
54978;BME280;40873;47.522;19.106;2023-04-03T09:52:42;100439.25;;;11.53;46.47
54978;BME280;40873;47.522;19.106;2023-04-03T09:55:19;100431.47;;;11.09;45.63
54978;BME280;40873;47.522;19.106;2023-04-03T09:57:49;100436.00;;;11.21;50.34
54978;BME280;40873;47.522;19.106;2023-04-03T10:00:26;100428.44;;;11.01;50.64
54978;BME280;40873;47.522;19.106;2023-04-03T10:02:55;100431.34;;;10.82;49.66
54978;BME280;40873;47.522;19.106;2023-04-03T10:05:39;100434.63;;;10.71;50.04
54978;BME280;40873;47.522;19.106;2023-04-03T10:10:47;100435.53;;;10.70;50.11
54978;BME280;40873;47.522;19.106;2023-04-03T10:13:19;100440.28;;;10.65;49.78
54978;BME280;40873;47.522;19.106;2023-04-03T10:15:54;100441.81;;;10.53;49.27
54978;BME280;40873;47.522;19.106;2023-04-03T10:21:24;100445.44;;;10.66;50.69
54978;BME280;40873;47.522;19.106;2023-04-03T10:26:45;100437.84;;;11.05;53.77
54978;BME280;40873;47.522;19.106;2023-04-03T10:29:48;100434.19;;;11.36;56.21
54978;BME280;40873;47.522;19.106;2023-04-03T10:32:30;100443.44;;;11.00;49.63
54978;BME280;40873;47.522;19.106;2023-04-03T10:37:50;100446.31;;;10.81;48.75
54978;BME280;40873;47.522;19.106;2023-04-03T10:46:17;100440.69;;;10.43;47.96
54978;BME280;40873;47.522;19.106;2023-04-03T10:51:41;100433.69;;;10.42;48.40
54978;BME280;40873;47.522;19.106;2023-04-03T10:54:22;100434.78;;;10.24;47.85
54978;BME280;40873;47.522;19.106;2023-04-03T10:59:53;100429.41;;;10.25;47.20
54978;BME280;40873;47.522;19.106;2023-04-03T11:05:05;100435.34;;;10.59;47.09
54978;BME280;40873;47.522;19.106;2023-04-03T11:07:43;100432.13;;;10.54;46.06
54978;BME280;40873;47.522;19.106;2023-04-03T11:10:42;100428.06;;;10.48;45.74
54978;BME280;40873;47.522;19.106;2023-04-03T11:13:19;100427.81;;;10.67;44.57
54978;BME280;40873;47.522;19.106;2023-04-03T11:15:51;100420.84;;;10.66;45.17
54978;BME280;40873;47.522;19.106;2023-04-03T11:18:25;100427.16;;;10.78;47.16
54978;BME280;40873;47.522;19.106;2023-04-03T11:21:00;100429.34;;;10.71;47.26
54978;BME280;40873;47.522;19.106;2023-04-03T11:23:34;100420.41;;;10.74;47.01
54978;BME280;40873;47.522;19.106;2023-04-03T11:26:17;100414.09;;;10.90;46.08
54978;BME280;40873;47.522;19.106;2023-04-03T11:28:45;100412.88;;;10.82;44.69
54978;BME280;40873;47.522;19.106;2023-04-03T11:36:48;100401.09;;;11.02;46.89
54978;BME280;40873;47.522;19.106;2023-04-03T11:39:26;100397.22;;;10.93;46.66
54978;BME280;40873;47.522;19.106;2023-04-03T11:41:55;100400.13;;;10.74;45.91
54978;BME280;40873;47.522;19.106;2023-04-03T11:44:38;100400.59;;;10.81;45.41
54978;BME280;40873;47.522;19.106;2023-04-03T11:47:07;100402.56;;;10.77;46.65
54978;BME280;40873;47.522;19.106;2023-04-03T11:49:58;100404.72;;;10.70;46.66
54978;BME280;40873;47.522;19.106;2023-04-03T12:14:03;100399.03;;;10.48;47.89
54978;BME280;40873;47.522;19.106;2023-04-03T12:16:43;100401.16;;;10.57;48.03
54978;BME280;40873;47.522;19.106;2023-04-03T12:46:18;100391.53;;;10.70;45.64
54978;BME280;40873;47.522;19.106;2023-04-03T12:53:49;100382.72;;;10.72;46.34
54978;BME280;40873;47.522;19.106;2023-04-03T12:58:55;100372.63;;;10.92;46.86
54978;BME280;40873;47.522;19.106;2023-04-03T13:01:25;100379.13;;;10.73;46.95
54978;BME280;40873;47.522;19.106;2023-04-03T13:03:55;100369.19;;;10.62;47.60
54978;BME280;40873;47.522;19.106;2023-04-03T13:06:26;100365.34;;;10.67;49.38
54978;BME280;40873;47.522;19.106;2023-04-03T13:08:56;100356.78;;;10.78;47.14
54978;BME280;40873;47.522;19.106;2023-04-03T13:11:25;100361.06;;;11.77;44.29
54978;BME280;40873;47.522;19.106;2023-04-03T13:14:18;100355.59;;;12.73;40.68
54978;BME280;40873;47.522;19.106;2023-04-03T13:17:10;100349.06;;;12.26;42.34
54978;BME280;40873;47.522;19.106;2023-04-03T13:19:43;100347.72;;;11.93;42.67
54978;BME280;40873;47.522;19.106;2023-04-03T13:22:33;100356.31;;;11.56;44.05
54978;BME280;40873;47.522;19.106;2023-04-03T13:25:09;100348.13;;;11.46;44.02
54978;BME280;40873;47.522;19.106;2023-04-03T13:27:38;100352.00;;;11.40;42.39
54978;BME280;40873;47.522;19.106;2023-04-03T13:30:17;100349.91;;;11.45;43.96
54978;BME280;40873;47.522;19.106;2023-04-03T13:32:45;100343.56;;;11.62;44.32
54978;BME280;40873;47.522;19.106;2023-04-03T13:38:24;100345.72;;;11.70;43.27
54978;BME280;40873;47.522;19.106;2023-04-03T13:40:55;100341.47;;;11.26;43.28
54978;BME280;40873;47.522;19.106;2023-04-03T13:43:35;100347.03;;;11.36;43.52
54978;BME280;40873;47.522;19.106;2023-04-03T13:46:04;100344.13;;;11.53;43.07
54978;BME280;40873;47.522;19.106;2023-04-03T13:48:41;100331.91;;;11.38;43.71
54978;BME280;40873;47.522;19.106;2023-04-03T13:53:48;100333.56;;;11.53;41.85
54978;BME280;40873;47.522;19.106;2023-04-03T13:56:27;100329.81;;;11.57;42.57
54978;BME280;40873;47.522;19.106;2023-04-03T13:59:20;100325.88;;;11.77;42.70
54978;BME280;40873;47.522;19.106;2023-04-03T14:01:57;100315.25;;;11.91;43.56
54978;BME280;40873;47.522;19.106;2023-04-03T14:07:16;100321.06;;;11.84;42.29
54978;BME280;40873;47.522;19.106;2023-04-03T14:09:44;100315.22;;;12.44;41.68
54978;BME280;40873;47.522;19.106;2023-04-03T14:12:36;100310.47;;;15.11;36.23
54978;BME280;40873;47.522;19.106;2023-04-03T14:15:24;100305.25;;;16.07;33.49
54978;BME280;40873;47.522;19.106;2023-04-03T14:17:53;100306.72;;;14.68;35.97
54978;BME280;40873;47.522;19.106;2023-04-03T14:20:22;100305.16;;;14.55;36.87
54978;BME280;40873;47.522;19.106;2023-04-03T14:22:50;100300.84;;;14.30;36.01
54978;BME280;40873;47.522;19.106;2023-04-03T14:25:19;100300.66;;;13.74;38.15
54978;BME280;40873;47.522;19.106;2023-04-03T14:27:48;100307.81;;;13.36;37.94
54978;BME280;40873;47.522;19.106;2023-04-03T14:30:25;100299.09;;;12.85;38.40
54978;BME280;40873;47.522;19.106;2023-04-03T14:32:53;100308.44;;;12.65;39.38
54978;BME280;40873;47.522;19.106;2023-04-03T14:35:20;100302.09;;;12.42;39.04
54978;BME280;40873;47.522;19.106;2023-04-03T14:37:48;100308.22;;;12.17;39.26
54978;BME280;40873;47.522;19.106;2023-04-03T14:40:20;100304.91;;;11.74;39.85
54978;BME280;40873;47.522;19.106;2023-04-03T14:42:47;100299.94;;;11.69;40.11
54978;BME280;40873;47.522;19.106;2023-04-03T14:45:16;100312.38;;;11.40;41.20
54978;BME280;40873;47.522;19.106;2023-04-03T14:47:51;100319.69;;;11.22;42.96
54978;BME280;40873;47.522;19.106;2023-04-03T14:50:22;100311.50;;;11.27;43.45
54978;BME280;40873;47.522;19.106;2023-04-03T14:52:52;100310.25;;;11.18;42.45
54978;BME280;40873;47.522;19.106;2023-04-03T14:55:22;100315.00;;;11.13;42.33
54978;BME280;40873;47.522;19.106;2023-04-03T14:57:49;100307.84;;;11.01;42.96
54978;BME280;40873;47.522;19.106;2023-04-03T15:00:19;100314.25;;;10.97;42.61